createdAt,value
2024-03-20T00:02:14.785Z,34.10
2024-03-20T00:04:43.264Z,35.70
2024-03-20T00:07:11.128Z,33.00
2024-03-20T00:09:38.991Z,34.70
2024-03-20T00:12:07.475Z,33.00
2024-03-20T00:14:35.442Z,36.60
2024-03-20T00:17:04.558Z,39.50
2024-03-20T00:19:32.508Z,39.20
2024-03-20T00:22:00.472Z,43.70
2024-03-20T00:24:28.233Z,51.40
2024-03-20T00:26:56.919Z,46.90
2024-03-20T00:29:24.794Z,39.30
2024-03-20T00:31:57.563Z,38.30
2024-03-20T00:34:25.430Z,39.10
2024-03-20T00:36:53.225Z,39.60
2024-03-20T00:39:21.071Z,40.90
2024-03-20T00:41:48.985Z,39.50
2024-03-20T00:44:16.891Z,49.30
2024-03-20T00:46:44.651Z,47.80
2024-03-20T00:49:12.517Z,51.20
2024-03-20T00:51:41.411Z,50.40
2024-03-20T00:54:09.272Z,117.30
2024-03-20T00:56:37.148Z,116.20
2024-03-20T00:59:06.147Z,141.80
2024-03-20T01:01:34.097Z,88.90
2024-03-20T01:04:01.880Z,89.40
2024-03-20T01:06:29.726Z,48.50
2024-03-20T01:08:57.489Z,42.20
2024-03-20T01:11:25.353Z,43.10
2024-03-20T01:13:53.221Z,39.00
2024-03-20T01:16:21.087Z,41.20
2024-03-20T01:18:49.153Z,42.80
2024-03-20T01:21:17.023Z,42.70
2024-03-20T01:23:44.784Z,36.70
2024-03-20T01:26:12.961Z,37.60
2024-03-20T01:28:42.668Z,40.50
2024-03-20T01:31:10.530Z,35.30
2024-03-20T01:33:38.395Z,35.00
2024-03-20T01:36:06.362Z,41.40
2024-03-20T01:38:34.341Z,41.80
2024-03-20T01:41:02.103Z,41.40
2024-03-20T01:43:30.061Z,42.00
2024-03-20T01:45:58.551Z,38.50
2024-03-20T01:48:26.330Z,39.60
2024-03-20T01:50:54.897Z,42.50
2024-03-20T01:53:22.759Z,44.20
2024-03-20T01:55:50.923Z,49.30
2024-03-20T01:58:18.792Z,43.50
2024-03-20T02:00:46.653Z,44.30
2024-03-20T02:03:19.573Z,40.40
2024-03-20T02:05:47.505Z,45.20
2024-03-20T02:08:15.474Z,41.60
2024-03-20T02:10:43.340Z,41.60
2024-03-20T02:13:11.206Z,41.80
2024-03-20T02:15:39.068Z,40.30
2024-03-20T02:18:07.149Z,42.50
2024-03-20T02:20:35.515Z,40.10
2024-03-20T02:23:03.800Z,40.50
2024-03-20T02:25:32.175Z,42.00
2024-03-20T02:28:00.044Z,41.90
2024-03-20T02:30:29.750Z,37.30
2024-03-20T02:32:57.605Z,42.00
2024-03-20T02:35:25.780Z,40.10
2024-03-20T02:37:53.653Z,44.60
2024-03-20T02:40:21.518Z,47.30
2024-03-20T02:42:49.494Z,49.40
2024-03-20T02:45:17.439Z,49.70
2024-03-20T02:47:45.211Z,47.50
2024-03-20T02:50:12.969Z,46.70
2024-03-20T02:52:40.834Z,46.80
2024-03-20T02:55:09.423Z,44.20
2024-03-20T02:57:37.183Z,45.30
2024-03-20T03:00:05.975Z,43.00
2024-03-20T03:02:33.832Z,44.90
2024-03-20T03:05:01.820Z,49.20
2024-03-20T03:07:29.881Z,43.10
2024-03-20T03:09:57.735Z,45.40
2024-03-20T03:12:25.515Z,48.60
2024-03-20T03:14:58.339Z,45.70
2024-03-20T03:17:30.261Z,47.90
2024-03-20T03:19:58.310Z,48.40
2024-03-20T03:22:26.280Z,47.40
2024-03-20T03:24:54.149Z,51.50
2024-03-20T03:27:22.010Z,50.50
2024-03-20T03:29:49.877Z,53.40
2024-03-20T03:32:17.640Z,50.80
2024-03-20T03:34:48.723Z,48.50
2024-03-20T03:37:16.648Z,49.50
2024-03-20T03:39:44.713Z,54.50
2024-03-20T03:42:16.480Z,45.80
2024-03-20T03:44:44.665Z,46.50
2024-03-20T03:47:12.719Z,56.00
2024-03-20T03:49:40.596Z,55.90
2024-03-20T03:52:08.955Z,55.60
2024-03-20T03:54:36.876Z,55.30
2024-03-20T03:57:05.315Z,57.60
2024-03-20T03:59:33.165Z,51.60
2024-03-20T04:02:01.451Z,58.80
2024-03-20T04:04:30.329Z,52.00
2024-03-20T04:06:58.403Z,61.50
2024-03-20T04:09:26.570Z,47.80
2024-03-20T04:11:54.438Z,48.80
2024-03-20T04:14:22.622Z,58.40
2024-03-20T04:16:50.685Z,52.90
2024-03-20T04:19:18.545Z,50.10
2024-03-20T04:21:46.312Z,49.60
2024-03-20T04:24:14.184Z,57.00
2024-03-20T04:26:42.144Z,50.50
2024-03-20T04:29:10.006Z,58.30
2024-03-20T04:31:37.771Z,62.90
2024-03-20T04:34:05.636Z,57.10
2024-03-20T04:36:33.503Z,63.40
2024-03-20T04:39:01.367Z,64.70
2024-03-20T04:41:29.133Z,62.10
2024-03-20T04:43:56.830Z,58.50
2024-03-20T04:46:24.657Z,65.80
2024-03-20T04:48:52.520Z,59.70
2024-03-20T04:51:20.393Z,64.30
2024-03-20T04:53:48.665Z,61.60
2024-03-20T04:56:16.425Z,65.10
2024-03-20T04:58:44.494Z,58.30
2024-03-20T05:01:12.255Z,64.00
2024-03-20T05:03:40.120Z,62.90
2024-03-20T05:06:08.098Z,66.40
2024-03-20T05:08:35.953Z,64.50
2024-03-20T05:11:04.042Z,64.00
2024-03-20T05:13:31.994Z,66.50
2024-03-20T05:16:00.631Z,66.90
2024-03-20T05:18:28.687Z,72.30
2024-03-20T05:20:56.614Z,67.40
2024-03-20T05:23:24.477Z,65.60
2024-03-20T05:25:58.865Z,65.90
2024-03-20T05:28:27.891Z,61.00
2024-03-20T05:30:55.857Z,68.90
2024-03-20T05:33:24.137Z,69.00
2024-03-20T05:35:51.894Z,70.80
2024-03-20T05:38:19.761Z,63.10
2024-03-20T05:40:47.834Z,69.80
2024-03-20T05:43:17.034Z,67.40
2024-03-20T05:45:45.605Z,71.60
2024-03-20T05:48:13.370Z,69.90
2024-03-20T05:50:41.130Z,69.20
2024-03-20T05:53:08.996Z,71.80
2024-03-20T05:55:36.774Z,72.50
2024-03-20T05:58:04.898Z,70.60
2024-03-20T06:00:33.348Z,67.10
2024-03-20T06:03:01.287Z,68.90
2024-03-20T06:05:30.063Z,69.40
2024-03-20T06:07:58.032Z,70.40
2024-03-20T06:10:26.114Z,64.30
2024-03-20T06:12:53.926Z,67.90
2024-03-20T06:15:22.196Z,66.50
2024-03-20T06:17:50.039Z,69.10
2024-03-20T06:20:18.486Z,69.70
2024-03-20T06:22:46.543Z,68.00
2024-03-20T06:25:14.679Z,68.70
2024-03-20T06:27:42.493Z,69.70
2024-03-20T06:30:16.602Z,67.50
2024-03-20T06:32:48.242Z,63.30
2024-03-20T06:35:17.351Z,63.90
2024-03-20T06:37:46.607Z,66.90
2024-03-20T06:40:15.908Z,67.60
2024-03-20T06:42:44.021Z,65.90
2024-03-20T06:45:12.047Z,71.20
2024-03-20T06:47:39.949Z,64.90
2024-03-20T06:50:09.643Z,65.80
2024-03-20T06:52:40.002Z,66.10
2024-03-20T06:55:08.996Z,68.20
2024-03-20T06:57:36.839Z,66.80
2024-03-20T07:00:08.416Z,67.60
2024-03-20T07:02:36.260Z,68.80
2024-03-20T07:05:04.637Z,63.20
2024-03-20T07:07:32.502Z,63.60
2024-03-20T07:10:00.362Z,66.20
2024-03-20T07:12:28.349Z,65.00
2024-03-20T07:14:56.359Z,66.50
2024-03-20T07:17:24.270Z,67.50
2024-03-20T07:19:55.003Z,64.10
2024-03-20T07:24:50.654Z,76.30
2024-03-20T07:27:18.598Z,60.60
2024-03-20T07:29:46.464Z,65.10
2024-03-20T07:32:15.197Z,60.50
2024-03-20T07:34:43.709Z,68.30
2024-03-20T07:37:12.876Z,64.40
2024-03-20T07:39:42.970Z,69.30
2024-03-20T07:42:10.966Z,63.20
2024-03-20T07:44:39.085Z,60.50
2024-03-20T07:47:07.029Z,58.50
2024-03-20T07:49:35.020Z,82.70
2024-03-20T07:52:02.986Z,64.40
2024-03-20T07:54:30.919Z,68.00
2024-03-20T07:56:59.255Z,64.90
2024-03-20T07:59:27.609Z,69.10
2024-03-20T08:01:55.756Z,84.30
2024-03-20T08:04:23.647Z,75.70
2024-03-20T08:06:53.764Z,63.50
2024-03-20T08:09:21.636Z,61.00
2024-03-20T08:11:49.389Z,74.80
2024-03-20T08:14:17.871Z,54.70
2024-03-20T08:16:45.971Z,64.70
2024-03-20T08:19:13.691Z,79.50
2024-03-20T08:21:41.873Z,57.20
2024-03-20T08:24:11.125Z,49.30
2024-03-20T08:26:40.478Z,54.70
2024-03-20T08:29:08.369Z,56.30
2024-03-20T08:31:36.412Z,55.10
2024-03-20T08:34:05.504Z,50.70
2024-03-20T08:36:33.371Z,54.90
2024-03-20T08:39:01.448Z,48.70
2024-03-20T08:41:29.513Z,49.00
2024-03-20T08:43:57.375Z,49.90
2024-03-20T08:46:26.229Z,49.70
2024-03-20T08:48:55.160Z,50.80
2024-03-20T08:51:23.014Z,47.60
2024-03-20T08:53:51.507Z,50.20
2024-03-20T08:56:20.080Z,45.80
2024-03-20T08:58:50.300Z,46.30
2024-03-20T09:01:21.952Z,45.60
2024-03-20T09:03:49.819Z,46.70
2024-03-20T09:06:18.402Z,74.10
2024-03-20T09:08:46.779Z,49.50
2024-03-20T09:11:14.646Z,53.00
2024-03-20T09:13:42.614Z,43.60
2024-03-20T09:16:10.582Z,41.90
2024-03-20T09:18:38.482Z,44.30
2024-03-20T09:21:06.412Z,41.70
2024-03-20T09:23:34.477Z,40.30
2024-03-20T09:26:02.355Z,43.60
2024-03-20T09:28:30.311Z,40.70
2024-03-20T09:30:58.183Z,41.60
2024-03-20T09:33:25.942Z,34.70
2024-03-20T09:35:54.628Z,35.40
2024-03-20T09:38:22.719Z,36.80
2024-03-20T09:40:50.563Z,36.90
2024-03-20T09:43:19.979Z,37.50
2024-03-20T09:45:49.578Z,33.70
2024-03-20T09:48:24.849Z,32.60
2024-03-20T09:50:59.546Z,34.80
2024-03-20T09:53:27.912Z,30.10
2024-03-20T09:55:55.731Z,48.00
2024-03-20T09:58:23.751Z,29.80
2024-03-20T10:00:51.630Z,26.10
2024-03-20T10:03:24.053Z,26.70
2024-03-20T10:05:53.486Z,26.80
2024-03-20T10:08:21.249Z,24.20
2024-03-20T10:10:49.218Z,25.50
2024-03-20T10:13:18.310Z,25.90
2024-03-20T10:15:46.176Z,27.80
2024-03-20T10:18:17.010Z,25.20
2024-03-20T10:20:44.878Z,23.10
2024-03-20T10:23:16.838Z,23.30
2024-03-20T10:25:44.907Z,24.90
2024-03-20T10:28:15.616Z,22.10
2024-03-20T10:30:43.628Z,20.90
2024-03-20T10:33:18.418Z,21.60
2024-03-20T10:35:52.753Z,21.10
2024-03-20T10:38:21.483Z,22.40
2024-03-20T10:40:51.249Z,25.80
2024-03-20T10:43:23.722Z,21.30
2024-03-20T10:45:54.460Z,21.30
2024-03-20T10:48:25.798Z,26.40
2024-03-20T10:50:55.630Z,19.60
2024-03-20T10:53:25.490Z,20.80
2024-03-20T10:55:54.930Z,20.00
2024-03-20T10:58:26.065Z,18.90
2024-03-20T11:00:55.689Z,18.60
2024-03-20T11:03:53.235Z,18.40
2024-03-20T11:06:30.213Z,19.00
2024-03-20T11:09:02.692Z,19.20
2024-03-20T11:11:31.371Z,17.60
2024-03-20T11:14:12.037Z,15.90
2024-03-20T11:16:40.413Z,16.80
2024-03-20T11:19:11.452Z,16.80
2024-03-20T11:21:39.625Z,17.40
2024-03-20T11:24:07.694Z,18.10
2024-03-20T11:26:36.585Z,16.70
2024-03-20T11:29:07.425Z,13.60
2024-03-20T11:31:39.464Z,15.30
2024-03-20T11:36:35.931Z,16.90
2024-03-20T11:39:09.789Z,15.40
2024-03-20T11:41:39.516Z,15.60
2024-03-20T11:46:39.373Z,13.20
2024-03-20T11:49:07.956Z,14.70
2024-03-20T11:51:36.038Z,13.80
2024-03-20T11:54:04.907Z,15.70
2024-03-20T11:56:33.292Z,17.50
2024-03-20T11:59:01.771Z,14.30
2024-03-20T12:01:29.843Z,14.00
2024-03-20T12:03:58.845Z,15.90
2024-03-20T12:06:27.520Z,15.30
2024-03-20T12:09:03.883Z,12.00
2024-03-20T12:11:35.435Z,11.20
2024-03-20T12:14:04.538Z,11.80
2024-03-20T12:16:32.814Z,12.00
2024-03-20T12:19:00.771Z,14.90
2024-03-20T12:21:29.953Z,14.00
2024-03-20T12:23:59.584Z,14.90
2024-03-20T12:26:30.108Z,11.80
2024-03-20T12:28:58.483Z,12.10
2024-03-20T12:31:26.642Z,12.40
2024-03-20T12:33:59.435Z,11.20
2024-03-20T12:36:27.612Z,13.60
2024-03-20T12:38:57.297Z,14.80
2024-03-20T12:41:26.509Z,14.60
2024-03-20T12:43:54.487Z,13.50
2024-03-20T12:46:22.450Z,15.80
2024-03-20T12:48:50.324Z,14.10
2024-03-20T12:51:21.060Z,15.70
2024-03-20T12:53:49.819Z,16.20
2024-03-20T12:56:19.742Z,12.60
2024-03-20T13:01:15.686Z,61.80
2024-03-20T13:03:43.582Z,17.80
2024-03-20T13:06:13.170Z,15.00
2024-03-20T13:08:41.121Z,13.60
2024-03-20T13:11:13.508Z,12.30
2024-03-20T13:13:41.457Z,13.20
2024-03-20T13:16:12.593Z,15.70
2024-03-20T13:18:43.556Z,16.30
2024-03-20T13:21:29.333Z,17.00
2024-03-20T13:24:02.027Z,15.00
2024-03-20T13:26:35.703Z,14.10
2024-03-20T13:29:04.179Z,14.80
2024-03-20T13:31:35.320Z,15.20
2024-03-20T13:34:14.761Z,14.70
2024-03-20T13:36:54.310Z,15.60
2024-03-20T13:39:35.167Z,14.80
2024-03-20T13:42:09.686Z,18.00
2024-03-20T13:44:37.574Z,15.40
2024-03-20T13:47:06.839Z,14.60
2024-03-20T13:49:34.616Z,14.10
2024-03-20T13:52:03.505Z,13.60
2024-03-20T13:54:31.374Z,15.90
2024-03-20T13:56:59.338Z,14.40
2024-03-20T13:59:27.204Z,16.20
2024-03-20T14:01:55.083Z,16.00
2024-03-20T14:04:23.754Z,17.80
2024-03-20T14:06:51.651Z,13.50
2024-03-20T14:09:21.430Z,13.90
2024-03-20T14:11:49.192Z,16.10
2024-03-20T14:14:17.222Z,14.80
2024-03-20T14:16:45.844Z,13.20
2024-03-20T14:19:13.705Z,13.30
2024-03-20T14:21:41.577Z,13.20
2024-03-20T14:24:10.973Z,13.90
2024-03-20T14:26:38.844Z,20.10
2024-03-20T14:29:11.934Z,15.30
2024-03-20T14:31:40.102Z,15.80
2024-03-20T14:34:08.173Z,17.10
2024-03-20T14:36:36.354Z,17.30
2024-03-20T14:39:05.968Z,15.70
2024-03-20T14:41:34.148Z,16.10
2024-03-20T14:44:02.190Z,17.20
2024-03-20T14:46:30.565Z,15.40
2024-03-20T14:48:58.850Z,14.40
2024-03-20T14:51:27.225Z,16.20
2024-03-20T14:53:55.471Z,18.10
2024-03-20T14:56:23.466Z,24.50
2024-03-20T14:58:54.508Z,21.30
2024-03-20T15:01:22.914Z,19.30
2024-03-20T15:03:51.192Z,19.50
2024-03-20T15:06:20.336Z,17.70
2024-03-20T15:08:49.298Z,16.60
2024-03-20T15:11:22.596Z,18.60
2024-03-20T15:13:51.533Z,16.20
2024-03-20T15:16:22.375Z,15.50
2024-03-20T15:18:52.274Z,20.70
2024-03-20T15:21:24.385Z,16.20
2024-03-20T15:23:52.609Z,18.50
2024-03-20T15:26:22.821Z,19.70
2024-03-20T15:28:54.812Z,16.90
2024-03-20T15:31:24.415Z,24.30
2024-03-20T15:33:52.715Z,20.90
2024-03-20T15:36:21.261Z,22.40
2024-03-20T15:38:50.044Z,25.10
2024-03-20T15:41:22.313Z,23.60
2024-03-20T15:43:50.487Z,18.50
2024-03-20T15:46:18.968Z,19.70
2024-03-20T15:48:47.548Z,20.70
2024-03-20T15:51:16.956Z,20.50
2024-03-20T15:53:45.431Z,18.70
2024-03-20T15:56:14.988Z,16.30
2024-03-20T15:58:42.903Z,17.60
2024-03-20T16:01:18.207Z,19.00
2024-03-20T16:03:46.623Z,18.30
2024-03-20T16:06:16.143Z,16.30
2024-03-20T16:08:44.397Z,15.30
2024-03-20T16:11:12.888Z,25.80
2024-03-20T16:13:44.986Z,27.00
2024-03-20T16:16:20.902Z,21.10
2024-03-20T16:18:48.953Z,20.40
2024-03-20T16:21:17.455Z,23.20
2024-03-20T16:23:45.311Z,25.10
2024-03-20T16:26:15.428Z,29.80
2024-03-20T16:28:44.331Z,32.50
2024-03-20T16:31:12.796Z,39.10
2024-03-20T16:33:40.678Z,41.60
2024-03-20T16:36:08.751Z,42.00
2024-03-20T16:38:37.523Z,51.90
2024-03-20T16:41:16.243Z,46.10
2024-03-20T16:43:50.862Z,37.50
2024-03-20T16:46:19.424Z,48.40
2024-03-20T16:48:47.307Z,36.10
2024-03-20T16:51:16.514Z,32.90
2024-03-20T16:53:44.782Z,33.40
2024-03-20T16:56:13.367Z,28.00
2024-03-20T16:58:42.150Z,31.50
2024-03-20T17:01:10.126Z,30.20
2024-03-20T17:03:38.291Z,25.00
2024-03-20T17:06:07.898Z,20.50
2024-03-20T17:08:35.967Z,18.80
2024-03-20T17:11:04.035Z,16.10
2024-03-20T17:13:32.015Z,18.20
2024-03-20T17:16:00.055Z,15.70
2024-03-20T17:18:28.159Z,15.50
2024-03-20T17:20:57.135Z,18.10
2024-03-20T17:23:24.951Z,16.90
2024-03-20T17:25:52.968Z,17.90
2024-03-20T17:28:21.549Z,20.60
2024-03-20T17:30:49.421Z,21.20
2024-03-20T17:33:17.384Z,20.20
2024-03-20T17:35:45.251Z,23.00
2024-03-20T17:38:13.211Z,24.90
2024-03-20T17:40:41.083Z,29.50
2024-03-20T17:43:08.960Z,49.90
2024-03-20T17:45:37.329Z,102.00
2024-03-20T17:48:05.813Z,56.80
2024-03-20T17:50:33.670Z,53.00
2024-03-20T17:53:01.589Z,38.50
2024-03-20T17:55:29.603Z,29.00
2024-03-20T17:57:57.518Z,27.10
2024-03-20T18:00:26.666Z,29.10
2024-03-20T18:02:54.530Z,30.00
2024-03-20T18:05:22.703Z,27.00
2024-03-20T18:07:50.681Z,32.00
2024-03-20T18:10:18.638Z,31.10
2024-03-20T18:12:46.504Z,34.20
2024-03-20T18:15:18.327Z,29.80
2024-03-20T18:17:47.256Z,31.10
2024-03-20T18:20:15.734Z,30.40
2024-03-20T18:22:45.248Z,32.30
2024-03-20T18:25:14.335Z,34.00
2024-03-20T18:27:42.206Z,47.40
2024-03-20T18:30:13.753Z,74.50
2024-03-20T18:32:41.824Z,95.50
2024-03-20T18:35:10.721Z,90.80
2024-03-20T18:37:39.081Z,89.20
2024-03-20T18:40:08.565Z,84.00
2024-03-20T18:42:36.870Z,86.50
2024-03-20T18:45:05.957Z,78.50
2024-03-20T18:47:34.251Z,70.70
2024-03-20T18:50:02.303Z,57.70
2024-03-20T18:52:30.987Z,59.10
2024-03-20T18:55:05.592Z,56.20
2024-03-20T18:57:36.266Z,52.30
2024-03-20T19:00:15.701Z,51.80
2024-03-20T19:02:43.953Z,49.00
2024-03-20T19:05:12.433Z,47.00
2024-03-20T19:07:41.227Z,42.00
2024-03-20T19:10:09.606Z,36.80
2024-03-20T19:12:38.181Z,32.30
2024-03-20T19:15:07.963Z,30.60
2024-03-20T19:17:36.067Z,27.60
2024-03-20T19:20:07.408Z,29.40
2024-03-20T19:22:35.274Z,32.80
2024-03-20T19:25:04.781Z,31.10
2024-03-20T19:27:32.950Z,28.30
2024-03-20T19:30:00.814Z,30.10
2024-03-20T19:32:28.790Z,30.60
2024-03-20T19:34:58.800Z,31.90
2024-03-20T19:37:27.281Z,34.90
2024-03-20T19:39:55.269Z,36.90
2024-03-20T19:42:23.214Z,39.50
2024-03-20T19:44:51.285Z,42.10
2024-03-20T19:47:19.466Z,42.40
2024-03-20T19:49:48.754Z,42.40
2024-03-20T19:52:17.137Z,47.60
2024-03-20T19:54:45.116Z,66.70
2024-03-20T19:57:13.065Z,73.90
2024-03-20T19:59:40.932Z,98.00
2024-03-20T20:02:09.612Z,100.40
2024-03-20T20:04:37.583Z,91.50
2024-03-20T20:07:06.512Z,73.80
2024-03-20T20:09:34.438Z,68.20
2024-03-20T20:12:03.431Z,62.40
2024-03-20T20:14:32.232Z,52.10
2024-03-20T20:17:00.088Z,57.80
2024-03-20T20:19:28.057Z,54.80
2024-03-20T20:21:56.172Z,52.90
2024-03-20T20:24:24.602Z,45.50
2024-03-20T20:26:53.199Z,47.10
2024-03-20T20:29:21.561Z,50.50
2024-03-20T20:31:49.531Z,45.90
2024-03-20T20:34:17.402Z,54.40
2024-03-20T20:36:46.386Z,59.20
2024-03-20T20:39:15.071Z,60.30
2024-03-20T20:41:45.309Z,61.40
2024-03-20T20:44:13.164Z,69.30
2024-03-20T20:46:41.745Z,70.40
2024-03-20T20:49:09.831Z,67.00
2024-03-20T20:51:37.573Z,60.60
2024-03-20T20:54:06.366Z,61.70
2024-03-20T20:56:34.224Z,59.90
2024-03-20T20:59:02.192Z,52.80
2024-03-20T21:01:30.055Z,58.30
2024-03-20T21:04:16.872Z,57.60
2024-03-20T21:07:03.490Z,60.00
2024-03-20T21:09:50.178Z,57.30
2024-03-20T21:12:36.883Z,56.60
2024-03-20T21:15:23.999Z,59.70
2024-03-20T21:18:10.718Z,50.60
2024-03-20T21:20:40.113Z,58.70
2024-03-20T21:23:14.101Z,58.10
2024-03-20T21:25:41.984Z,73.30
2024-03-20T21:28:09.862Z,71.60
2024-03-20T21:30:37.819Z,68.50
2024-03-20T21:33:05.891Z,70.20
2024-03-20T21:35:33.754Z,59.60
2024-03-20T21:38:02.031Z,63.30
2024-03-20T21:40:32.764Z,65.60
2024-03-20T21:43:00.687Z,67.80
2024-03-20T21:45:28.697Z,71.90
2024-03-20T21:47:56.870Z,67.70
2024-03-20T21:50:24.740Z,69.50
2024-03-20T21:52:52.809Z,69.90
2024-03-20T21:55:21.898Z,62.60
2024-03-20T21:57:50.891Z,61.20
2024-03-20T22:00:20.681Z,58.20
2024-03-20T22:02:48.565Z,59.90
2024-03-20T22:05:16.850Z,67.80
2024-03-20T22:07:45.883Z,58.80
2024-03-20T22:10:24.613Z,57.60
2024-03-20T22:12:53.751Z,55.40
2024-03-20T22:15:21.716Z,55.80
2024-03-20T22:17:49.681Z,50.40
2024-03-20T22:20:18.586Z,50.50
2024-03-20T22:22:48.612Z,47.60
2024-03-20T22:25:16.867Z,52.10
2024-03-20T22:27:44.947Z,51.00
2024-03-20T22:30:15.428Z,49.80
2024-03-20T22:35:12.217Z,46.90
2024-03-20T22:37:40.951Z,38.20
2024-03-20T22:40:10.803Z,38.40
2024-03-20T22:42:42.274Z,34.20
2024-03-20T22:45:18.349Z,35.70
2024-03-20T22:47:49.779Z,38.10
2024-03-20T22:50:17.735Z,38.20
2024-03-20T22:52:45.607Z,39.00
2024-03-20T22:55:15.004Z,38.90
2024-03-20T22:57:53.285Z,35.80
2024-03-20T23:00:41.352Z,40.40
2024-03-20T23:03:09.836Z,43.20
2024-03-20T23:05:38.309Z,41.60
2024-03-20T23:08:06.582Z,41.50
2024-03-20T23:10:34.450Z,47.20
2024-03-20T23:13:02.520Z,42.10
2024-03-20T23:15:40.544Z,42.50
2024-03-20T23:18:12.590Z,40.00
2024-03-20T23:20:40.557Z,40.40
2024-03-20T23:23:09.342Z,40.40
2024-03-20T23:25:39.268Z,45.00
2024-03-20T23:28:07.431Z,42.30
2024-03-20T23:30:35.302Z,43.30
2024-03-20T23:33:03.583Z,39.50
2024-03-20T23:35:31.640Z,38.50
2024-03-20T23:37:59.723Z,37.30
2024-03-20T23:40:28.089Z,40.70
2024-03-20T23:42:55.949Z,45.90
2024-03-20T23:45:23.824Z,43.20
2024-03-20T23:47:51.697Z,43.10
2024-03-20T23:50:19.549Z,46.90
2024-03-20T23:52:47.724Z,42.80
2024-03-20T23:55:15.595Z,45.50
2024-03-20T23:57:43.564Z,43.30
